Time;durP1;ratioP1;P1;durP2;ratioP2;P2;SDS_P1;SDS_P2;PMS_P1;PMS_P2;Temp;Humidity;BMP_temperature;BMP_pressure;BME280_temperature;BME280_humidity;BME280_pressure;Samples;Min_cycle;Max_cycle;Signal;HPM_P1;HPM_P2
2023/09/30 00:01:31;;;;;;;;;;;;;;;19.69;72.17;101534.03;4105207;28;20444;-65
2023/09/30 00:03:34;;;;;;;;;;;;;;;19.66;72.13;101539.97;4106726;28;19964;-64
2023/09/30 00:05:36;;;;;;;;;;;;;;;19.59;71.30;101534.50;4105153;28;20029;-65
2023/09/30 00:07:38;;;;;;;;;;;;;;;19.58;71.54;101538.31;4105579;28;20365;-65
2023/09/30 00:09:40;;;;;;;;;;;;;;;19.56;70.91;101540.41;4106439;28;20005;-66
2023/09/30 00:11:42;;;;;;;;;;;;;;;19.55;69.74;101544.22;4105797;28;20020;-65
2023/09/30 00:13:43;;;;;;;;;;;;;;;19.52;69.15;101550.97;4106050;28;20029;-65
2023/09/30 00:15:45;;;;;;;;;;;;;;;19.51;68.62;101548.44;4106137;28;20325;-67
2023/09/30 00:17:47;;;;;;;;;;;;;;;19.51;68.83;101553.91;4105694;28;20014;-66
2023/09/30 00:19:50;;;;;;;;;;;;;;;19.49;67.85;101550.56;4105721;28;19933;-65
2023/09/30 00:21:51;;;;;;;;;;;;;;;19.42;67.14;101564.28;4105093;28;20006;-64
2023/09/30 00:23:53;;;;;;;;;;;;;;;19.44;67.78;101570.38;4105714;28;19926;-65
2023/09/30 00:25:55;;;;;;;;;;;;;;;19.41;66.85;101571.66;4106465;28;20018;-64
2023/09/30 00:27:57;;;;;;;;;;;;;;;19.40;66.14;101577.34;4106010;28;20448;-65
2023/09/30 00:29:59;;;;;;;;;;;;;;;19.38;66.10;101579.47;4105263;28;20005;-64
2023/09/30 00:32:01;;;;;;;;;;;;;;;19.32;65.08;101586.63;4104609;28;20020;-64
2023/09/30 00:34:04;;;;;;;;;;;;;;;19.29;64.61;101587.06;4104282;28;20060;-64
2023/09/30 00:36:08;;;;;;;;;;;;;;;19.25;64.21;101585.81;4105854;28;20025;-65
2023/09/30 00:38:10;;;;;;;;;;;;;;;19.22;63.70;101589.00;4105448;28;20372;-66
2023/09/30 00:40:13;;;;;;;;;;;;;;;19.18;64.40;101587.72;4088920;28;20029;-64
2023/09/30 00:42:15;;;;;;;;;;;;;;;19.15;63.96;101597.19;4105874;28;20018;-64
2023/09/30 00:44:17;;;;;;;;;;;;;;;19.14;64.09;101591.94;4106125;28;19929;-65
2023/09/30 00:46:23;;;;;;;;;;;;;;;19.08;64.44;101596.38;4090547;28;20356;-65
2023/09/30 00:48:26;;;;;;;;;;;;;;;19.05;64.47;101600.38;4104279;28;20021;-65
2023/09/30 00:50:28;;;;;;;;;;;;;;;19.01;64.29;101598.28;4087675;28;20025;-65
2023/09/30 00:52:31;;;;;;;;;;;;;;;18.99;64.89;101603.13;4088452;28;20010;-65
2023/09/30 00:54:35;;;;;;;;;;;;;;;18.97;65.29;101606.09;4106053;28;20025;-65
2023/09/30 00:56:36;;;;;;;;;;;;;;;18.94;64.83;101611.16;4104243;28;20421;-67
2023/09/30 00:58:38;;;;;;;;;;;;;;;18.91;65.35;101609.66;4105526;28;20052;-65
2023/09/30 01:00:40;;;;;;;;;;;;;;;18.93;65.72;101606.72;4104099;28;20013;-69
2023/09/30 01:02:44;;;;;;;;;;;;;;;18.89;65.28;101614.50;4105268;28;20017;-65
2023/09/30 01:04:45;;;;;;;;;;;;;;;18.88;65.05;101612.81;4105633;28;19993;-65
2023/09/30 01:06:47;;;;;;;;;;;;;;;18.87;65.14;101614.72;4105576;28;19930;-65
2023/09/30 01:08:50;;;;;;;;;;;;;;;18.85;64.77;101614.06;4089123;28;20021;-67
2023/09/30 01:10:52;;;;;;;;;;;;;;;18.82;64.48;101633.63;4104847;28;20005;-65
2023/09/30 01:12:54;;;;;;;;;;;;;;;18.75;64.18;101627.31;4104881;28;20611;-64
2023/09/30 01:14:57;;;;;;;;;;;;;;;18.72;64.03;101634.03;4105489;28;20033;-65
2023/09/30 01:16:59;;;;;;;;;;;;;;;18.70;63.98;101630.69;4104592;28;20022;-65
2023/09/30 01:19:02;;;;;;;;;;;;;;;18.66;63.79;101634.03;4105436;28;20037;-65
2023/09/30 01:21:04;;;;;;;;;;;;;;;18.62;63.96;101633.63;4104746;28;20025;-65
2023/09/30 01:23:12;;;;;;;;;;;;;;;18.58;64.21;101632.34;4103422;28;20026;-66
2023/09/30 01:25:14;;;;;;;;;;;;;;;18.57;63.97;101640.78;4104903;28;19970;-65
2023/09/30 01:27:18;;;;;;;;;;;;;;;18.57;65.01;101647.06;4104260;28;20008;-65
2023/09/30 01:29:22;;;;;;;;;;;;;;;18.51;63.94;101651.50;4105334;28;20001;-64
2023/09/30 01:31:24;;;;;;;;;;;;;;;18.48;63.86;101651.91;4088622;28;20021;-66
2023/09/30 01:33:25;;;;;;;;;;;;;;;18.43;63.58;101653.56;4102285;28;20034;-66
2023/09/30 01:35:27;;;;;;;;;;;;;;;18.41;63.96;101659.25;4104012;28;19926;-65
2023/09/30 01:37:29;;;;;;;;;;;;;;;18.36;63.65;101656.31;4105230;28;20018;-65
2023/09/30 01:39:33;;;;;;;;;;;;;;;18.31;63.46;101665.13;4103404;28;20044;-66
2023/09/30 01:41:35;;;;;;;;;;;;;;;18.29;63.71;101674.56;4119425;28;20073;-65
2023/09/30 01:43:37;;;;;;;;;;;;;;;18.29;63.95;101669.97;4105061;28;20012;-66
2023/09/30 01:45:39;;;;;;;;;;;;;;;18.27;63.73;101665.75;4104329;28;19958;-65
2023/09/30 01:47:41;;;;;;;;;;;;;;;18.22;63.51;101671.81;4105019;28;20359;-65
2023/09/30 01:49:43;;;;;;;;;;;;;;;18.20;63.93;101682.13;4103532;28;20016;-65
2023/09/30 01:51:45;;;;;;;;;;;;;;;18.17;63.83;101682.53;4105054;28;20642;-65
2023/09/30 01:53:47;;;;;;;;;;;;;;;18.13;63.34;101681.25;4105149;28;20017;-65
2023/09/30 01:55:51;;;;;;;;;;;;;;;18.12;64.04;101679.56;4103741;28;20026;-68
2023/09/30 01:57:52;;;;;;;;;;;;;;;18.11;64.11;101689.66;4103759;28;20017;-67
2023/09/30 01:59:54;;;;;;;;;;;;;;;18.08;64.01;101687.31;4104088;28;20367;-66
2023/09/30 02:01:56;;;;;;;;;;;;;;;18.04;63.98;101690.66;4118583;28;20009;-66
2023/09/30 02:03:58;;;;;;;;;;;;;;;18.00;63.88;101691.06;4108173;28;20016;-65
2023/09/30 02:06:00;;;;;;;;;;;;;;;18.00;64.64;101691.06;4107581;28;19933;-66
2023/09/30 02:08:05;;;;;;;;;;;;;;;17.98;64.15;101701.38;4108106;28;20013;-65
2023/09/30 02:10:08;;;;;;;;;;;;;;;17.96;64.45;101705.34;4105963;28;20017;-65
2023/09/30 02:12:13;;;;;;;;;;;;;;;17.93;64.70;101712.09;4107288;28;20460;-66
2023/09/30 02:14:15;;;;;;;;;;;;;;;17.90;64.58;101707.03;4091462;28;20009;-65
2023/09/30 02:16:16;;;;;;;;;;;;;;;17.87;64.71;101712.00;4106668;28;20020;-66
2023/09/30 02:18:17;;;;;;;;;;;;;;;17.84;64.90;101718.72;4108005;28;20029;-64
2023/09/30 02:20:22;;;;;;;;;;;;;;;17.82;65.16;101726.25;4106188;28;20460;-65
2023/09/30 02:22:24;;;;;;;;;;;;;;;17.80;65.32;101722.91;4107432;28;20021;-65
2023/09/30 02:24:27;;;;;;;;;;;;;;;17.76;65.46;101717.00;4105077;28;20009;-65
2023/09/30 02:26:29;;;;;;;;;;;;;;;17.75;65.32;101726.22;4107276;28;19922;-65
2023/09/30 02:28:32;;;;;;;;;;;;;;;17.74;65.72;101729.16;4107906;28;20018;-65
2023/09/30 02:30:34;;;;;;;;;;;;;;;17.71;65.55;101726.81;4107853;28;20009;-65
2023/09/30 02:32:36;;;;;;;;;;;;;;;17.67;65.83;101722.84;4107519;28;20363;-65
2023/09/30 02:34:38;;;;;;;;;;;;;;;17.67;66.11;101722.84;4108199;28;20396;-66
2023/09/30 02:36:39;;;;;;;;;;;;;;;17.67;66.37;101733.75;4107847;28;20032;-65
2023/09/30 02:38:41;;;;;;;;;;;;;;;17.64;66.49;101726.78;4092500;28;20038;-66
2023/09/30 02:40:46;;;;;;;;;;;;;;;17.62;66.52;101726.16;4107228;28;20009;-64
2023/09/30 02:42:48;;;;;;;;;;;;;;;17.60;66.65;101734.56;4107054;28;20008;-65
2023/09/30 02:44:52;;;;;;;;;;;;;;;17.57;66.77;101739.56;4107276;28;20008;-65
2023/09/30 02:46:54;;;;;;;;;;;;;;;17.55;66.92;101736.19;4106027;28;19930;-65
2023/09/30 02:48:56;;;;;;;;;;;;;;;17.51;67.13;101746.66;4106777;28;20609;-65
2023/09/30 02:50:58;;;;;;;;;;;;;;;17.47;67.38;101753.56;4105979;28;20038;-63
2023/09/30 02:53:00;;;;;;;;;;;;;;;17.46;67.59;101755.47;4107161;28;20026;-63
2023/09/30 02:55:02;;;;;;;;;;;;;;;17.43;67.75;101771.41;4107684;28;20009;-63
2023/09/30 02:57:04;;;;;;;;;;;;;;;17.40;67.93;101766.34;4107684;28;20401;-63
2023/09/30 02:59:07;;;;;;;;;;;;;;;17.37;68.06;101777.66;4105469;28;20475;-65
2023/09/30 03:01:09;;;;;;;;;;;;;;;17.37;68.20;101769.47;4106271;28;20022;-68
2023/09/30 03:03:11;;;;;;;;;;;;;;;17.34;68.50;101772.59;4106940;28;20017;-64
2023/09/30 03:05:15;;;;;;;;;;;;;;;17.27;68.46;101775.22;4107841;28;20024;-63
2023/09/30 03:07:19;;;;;;;;;;;;;;;17.25;68.78;101778.16;4107867;28;19929;-63
2023/09/30 03:09:21;;;;;;;;;;;;;;;17.22;69.08;101783.19;4106716;28;20029;-64
2023/09/30 03:11:23;;;;;;;;;;;;;;;17.19;69.29;101776.22;4106209;28;20031;-65
2023/09/30 03:13:26;;;;;;;;;;;;;;;17.17;69.34;101778.31;4107483;28;20025;-64
2023/09/30 03:15:30;;;;;;;;;;;;;;;17.15;69.55;101776.78;4106483;28;20033;-65
2023/09/30 03:17:34;;;;;;;;;;;;;;;17.11;69.79;101785.41;4105213;28;20029;-63
2023/09/30 03:19:37;;;;;;;;;;;;;;;17.08;69.92;101784.94;4106744;28;20017;-64
2023/09/30 03:21:39;;;;;;;;;;;;;;;17.05;70.18;101794.38;4105700;28;20009;-63
2023/09/30 03:23:41;;;;;;;;;;;;;;;17.02;70.24;101791.16;4106709;28;20048;-66
2023/09/30 03:25:42;;;;;;;;;;;;;;;16.99;70.50;101783.34;4107550;28;20259;-65
2023/09/30 03:27:46;;;;;;;;;;;;;;;16.96;70.67;101792.81;4107101;28;19926;-64
2023/09/30 03:29:48;;;;;;;;;;;;;;;16.92;70.72;101795.06;4106931;28;20052;-64
2023/09/30 03:31:52;;;;;;;;;;;;;;;16.92;70.74;101803.22;4105060;28;20433;-64
2023/09/30 03:33:55;;;;;;;;;;;;;;;16.89;71.24;101800.91;4105622;28;20083;-65
2023/09/30 03:35:58;;;;;;;;;;;;;;;16.86;71.22;101804.00;4105656;28;20398;-64
2023/09/30 03:38:02;;;;;;;;;;;;;;;16.86;71.42;101803.16;4107118;28;20008;-65
2023/09/30 03:40:13;;;;;;;;;;;;;;;16.84;71.69;101803.34;4106016;28;20432;-65
2023/09/30 03:42:16;;;;;;;;;;;;;;;16.80;71.59;101793.00;4107139;28;20025;-64
2023/09/30 03:44:19;;;;;;;;;;;;;;;16.78;72.02;101792.34;4107044;28;20371;-64
2023/09/30 03:46:21;;;;;;;;;;;;;;;16.74;71.97;101790.00;4105680;28;20013;-64
2023/09/30 03:48:22;;;;;;;;;;;;;;;16.73;72.10;101799.22;4106525;28;19925;-66
2023/09/30 03:50:26;;;;;;;;;;;;;;;16.70;72.17;101796.03;4103822;28;20013;-66
2023/09/30 03:52:28;;;;;;;;;;;;;;;16.67;72.05;101802.72;4105653;28;20371;-66
2023/09/30 03:54:31;;;;;;;;;;;;;;;16.67;72.24;101810.91;4105157;28;20013;-63
2023/09/30 03:56:33;;;;;;;;;;;;;;;16.67;72.44;101807.34;4106172;28;20457;-63
2023/09/30 03:58:36;;;;;;;;;;;;;;;16.65;72.52;101806.69;4107447;28;20016;-64
2023/09/30 04:00:39;;;;;;;;;;;;;;;16.62;72.23;101807.91;4105272;28;20021;-64
2023/09/30 04:02:42;;;;;;;;;;;;;;;16.57;72.56;101810.38;4105826;28;20029;-64
2023/09/30 04:04:46;;;;;;;;;;;;;;;16.53;72.69;101812.59;4105667;28;19961;-65
2023/09/30 04:06:51;;;;;;;;;;;;;;;16.48;72.97;101808.78;4105820;28;20017;-65
2023/09/30 04:08:53;;;;;;;;;;;;;;;16.42;73.06;101809.53;4106865;28;19973;-66
2023/09/30 04:10:55;;;;;;;;;;;;;;;16.39;73.24;101803.44;4105507;28;20025;-64
2023/09/30 04:12:57;;;;;;;;;;;;;;;16.36;73.21;101806.53;4105237;28;20021;-66
2023/09/30 04:14:58;;;;;;;;;;;;;;;16.34;73.59;101805.03;4106655;28;20451;-67
2023/09/30 04:17:00;;;;;;;;;;;;;;;16.33;73.70;101811.50;4104769;28;19933;-66
2023/09/30 04:19:02;;;;;;;;;;;;;;;16.29;73.67;101818.38;4106049;28;20352;-66
2023/09/30 04:21:05;;;;;;;;;;;;;;;16.26;74.10;101818.75;4105787;28;20013;-66
2023/09/30 04:23:10;;;;;;;;;;;;;;;16.22;74.05;101826.44;4105875;28;20408;-66
2023/09/30 04:25:13;;;;;;;;;;;;;;;16.21;74.26;101833.78;4105406;28;20044;-66
2023/09/30 04:27:14;;;;;;;;;;;;;;;16.17;74.41;101832.47;4103593;28;20459;-66
2023/09/30 04:29:17;;;;;;;;;;;;;;;16.17;74.52;101837.09;4106180;28;19922;-64
2023/09/30 04:31:19;;;;;;;;;;;;;;;16.12;74.67;101837.63;4104602;28;20022;-65
2023/09/30 04:33:24;;;;;;;;;;;;;;;16.11;74.70;101835.97;4104649;28;20018;-69
2023/09/30 04:35:26;;;;;;;;;;;;;;;16.08;75.04;101838.19;4106305;28;20057;-66
2023/09/30 04:37:28;;;;;;;;;;;;;;;16.07;74.95;101839.25;4105868;28;20017;-63
2023/09/30 04:39:35;;;;;;;;;;;;;;;16.05;75.03;101834.00;4105714;28;20377;-64
2023/09/30 04:41:37;;;;;;;;;;;;;;;16.01;74.96;101829.94;4105129;28;20008;-63
2023/09/30 04:43:39;;;;;;;;;;;;;;;15.99;74.67;101837.47;4105435;28;20025;-63
2023/09/30 04:45:41;;;;;;;;;;;;;;;15.97;74.74;101836.78;4105605;28;20018;-62
2023/09/30 04:47:44;;;;;;;;;;;;;;;15.92;75.00;101848.22;4104425;28;20349;-64
2023/09/30 04:49:46;;;;;;;;;;;;;;;15.90;75.15;101841.28;4105449;28;20010;-67
2023/09/30 04:51:49;;;;;;;;;;;;;;;15.85;75.16;101842.69;4105599;28;20026;-64
2023/09/30 04:53:51;;;;;;;;;;;;;;;15.85;75.21;101836.41;4104632;28;20033;-62
2023/09/30 04:55:53;;;;;;;;;;;;;;;15.79;75.17;101832.53;4105488;28;20103;-64
2023/09/30 04:57:55;;;;;;;;;;;;;;;15.80;75.36;101836.13;4105021;28;20013;-66
2023/09/30 04:59:57;;;;;;;;;;;;;;;15.76;75.45;101840.19;4103302;28;20025;-66
2023/09/30 05:02:00;;;;;;;;;;;;;;;15.75;75.44;101839.38;4105461;28;20432;-65
2023/09/30 05:04:02;;;;;;;;;;;;;;;15.75;75.30;101844.81;4105296;28;20471;-65
2023/09/30 05:06:04;;;;;;;;;;;;;;;15.72;75.81;101845.19;4105175;28;20013;-66
2023/09/30 05:08:07;;;;;;;;;;;;;;;15.66;75.79;101841.31;4105161;28;20030;-67
2023/09/30 05:10:11;;;;;;;;;;;;;;;15.63;75.69;101851.72;4105573;28;19930;-65
2023/09/30 05:12:16;;;;;;;;;;;;;;;15.60;75.88;101849.38;4104773;28;20437;-64
2023/09/30 05:14:18;;;;;;;;;;;;;;;15.56;75.84;101853.47;4105231;28;20018;-65
2023/09/30 05:16:20;;;;;;;;;;;;;;;15.53;75.94;101860.13;4105819;28;20004;-65
2023/09/30 05:18:21;;;;;;;;;;;;;;;15.49;75.96;101861.53;4104837;28;20485;-66
2023/09/30 05:20:24;;;;;;;;;;;;;;;15.42;76.31;101872.31;4105238;28;20008;-65
2023/09/30 05:22:26;;;;;;;;;;;;;;;15.44;75.93;101872.97;4105183;28;20012;-64
2023/09/30 05:24:28;;;;;;;;;;;;;;;15.38;76.34;101864.69;4105257;28;20017;-64
2023/09/30 05:26:32;;;;;;;;;;;;;;;15.35;76.41;101860.44;4104834;28;20508;-65
2023/09/30 05:28:35;;;;;;;;;;;;;;;15.31;76.80;101864.53;4104781;28;20013;-65
2023/09/30 05:30:37;;;;;;;;;;;;;;;15.30;76.72;101871.03;4104341;28;19926;-64
2023/09/30 05:32:39;;;;;;;;;;;;;;;15.29;76.73;101872.06;4105289;28;20004;-65
2023/09/30 05:34:41;;;;;;;;;;;;;;;15.26;77.07;101877.84;4105518;28;20030;-63
2023/09/30 05:36:43;;;;;;;;;;;;;;;15.25;76.89;101876.16;4104184;28;20017;-65
2023/09/30 05:38:47;;;;;;;;;;;;;;;15.20;76.96;101882.13;4110353;28;20021;-64
2023/09/30 05:40:49;;;;;;;;;;;;;;;15.13;77.21;101887.44;4110137;28;20041;-64
2023/09/30 05:42:51;;;;;;;;;;;;;;;15.11;77.35;101894.13;4111219;28;20441;-66
2023/09/30 05:44:55;;;;;;;;;;;;;;;15.09;77.66;101891.56;4110242;28;20021;-64
2023/09/30 05:46:57;;;;;;;;;;;;;;;15.10;77.85;101892.41;4110289;28;20054;-64
2023/09/30 05:48:59;;;;;;;;;;;;;;;15.09;77.61;101897.03;4109157;28;20013;-65
2023/09/30 05:51:01;;;;;;;;;;;;;;;15.09;77.92;101904.31;4109032;28;20424;-63
2023/09/30 05:53:04;;;;;;;;;;;;;;;15.09;77.87;101901.59;4110199;28;20012;-66
2023/09/30 05:55:06;;;;;;;;;;;;;;;15.07;78.07;101899.06;4111031;28;20005;-65
2023/09/30 05:57:08;;;;;;;;;;;;;;;15.08;78.34;101898.03;4110876;28;20021;-63
2023/09/30 05:59:11;;;;;;;;;;;;;;;15.08;78.36;101910.81;4109889;28;20004;-64
2023/09/30 06:01:18;;;;;;;;;;;;;;;15.10;78.20;101912.31;4108880;28;20021;-63
2023/09/30 06:03:21;;;;;;;;;;;;;;;15.11;78.57;101918.59;4110113;28;20020;-65
2023/09/30 06:05:22;;;;;;;;;;;;;;;15.12;78.73;101933.88;4109921;28;20016;-64
2023/09/30 06:07:24;;;;;;;;;;;;;;;15.11;78.77;101927.59;4110964;28;19926;-64
2023/09/30 06:09:26;;;;;;;;;;;;;;;15.14;78.94;101934.59;4110360;28;20012;-63
2023/09/30 06:11:29;;;;;;;;;;;;;;;15.17;78.94;101925.19;4109919;28;20013;-62
2023/09/30 06:13:32;;;;;;;;;;;;;;;15.17;79.19;101911.59;4110729;28;20018;-65
2023/09/30 06:15:34;;;;;;;;;;;;;;;15.19;79.42;101921.28;4094236;28;20010;-64
2023/09/30 06:17:38;;;;;;;;;;;;;;;15.23;79.36;101921.75;4109992;28;20009;-65
2023/09/30 06:19:40;;;;;;;;;;;;;;;15.27;79.50;101921.22;4110364;28;20021;-63
2023/09/30 06:21:42;;;;;;;;;;;;;;;15.27;79.81;101923.94;4110503;28;20025;-63
2023/09/30 06:23:44;;;;;;;;;;;;;;;15.31;79.47;101929.88;4109587;28;20014;-64
2023/09/30 06:25:46;;;;;;;;;;;;;;;15.32;79.67;101939.75;4111308;28;19968;-64
2023/09/30 06:27:49;;;;;;;;;;;;;;;15.35;79.31;101942.09;4110048;28;20012;-64
2023/09/30 06:29:52;;;;;;;;;;;;;;;15.37;79.37;101931.88;4109949;28;20021;-65
2023/09/30 06:31:54;;;;;;;;;;;;;;;15.40;79.12;101942.41;4109815;28;19926;-64
2023/09/30 06:34:00;;;;;;;;;;;;;;;15.44;78.82;101938.31;4109884;28;20005;-65
2023/09/30 06:36:02;;;;;;;;;;;;;;;15.45;79.01;101944.59;4093704;28;20013;-64
2023/09/30 06:38:06;;;;;;;;;;;;;;;15.47;78.95;101951.56;4110507;28;20021;-65
2023/09/30 06:40:09;;;;;;;;;;;;;;;15.48;78.95;101946.94;4109341;28;20013;-65
2023/09/30 06:42:11;;;;;;;;;;;;;;;15.49;78.63;101949.50;4109604;28;20429;-64
2023/09/30 06:44:13;;;;;;;;;;;;;;;15.51;78.74;101952.03;4109984;28;20424;-63
2023/09/30 06:46:16;;;;;;;;;;;;;;;15.52;78.40;101953.75;4108001;28;20020;-64
2023/09/30 06:48:18;;;;;;;;;;;;;;;15.56;78.53;101954.22;4109007;28;20052;-63
2023/09/30 06:50:22;;;;;;;;;;;;;;;15.58;78.48;101960.31;4106402;28;20025;-65
2023/09/30 06:52:24;;;;;;;;;;;;;;;15.59;78.38;101968.31;4107585;28;19922;-65
2023/09/30 06:54:26;;;;;;;;;;;;;;;15.61;78.30;101966.28;4089629;28;19923;-65
2023/09/30 06:56:28;;;;;;;;;;;;;;;15.62;78.07;101970.69;4107718;28;20017;-63
2023/09/30 06:58:30;;;;;;;;;;;;;;;15.64;78.17;101970.50;4107282;28;20045;-64
2023/09/30 07:00:31;;;;;;;;;;;;;;;15.64;78.01;101975.94;4106672;28;20025;-63
2023/09/30 07:02:33;;;;;;;;;;;;;;;15.64;77.69;101982.25;4106002;28;19926;-65
2023/09/30 07:04:35;;;;;;;;;;;;;;;15.64;77.99;101984.97;4107466;28;20420;-63
2023/09/30 07:06:39;;;;;;;;;;;;;;;15.66;77.57;101984.81;4106719;28;20045;-63
2023/09/30 07:08:41;;;;;;;;;;;;;;;15.67;77.54;101986.47;4090860;28;20030;-63
2023/09/30 07:10:45;;;;;;;;;;;;;;;15.67;77.71;101984.63;4107486;28;20046;-64
2023/09/30 07:12:47;;;;;;;;;;;;;;;15.70;77.75;101991.56;4106605;28;19926;-65
2023/09/30 07:14:49;;;;;;;;;;;;;;;15.72;77.53;101997.69;4107589;28;20012;-63
2023/09/30 07:16:51;;;;;;;;;;;;;;;15.72;77.78;102000.44;4105871;28;20017;-63
2023/09/30 07:18:53;;;;;;;;;;;;;;;15.75;77.69;102001.91;4106033;28;20017;-63
2023/09/30 07:20:55;;;;;;;;;;;;;;;15.77;77.74;102006.19;4090524;28;20021;-63
2023/09/30 07:22:59;;;;;;;;;;;;;;;15.80;77.48;102005.00;4105341;28;19926;-64
2023/09/30 07:25:00;;;;;;;;;;;;;;;15.83;77.00;102008.19;4107135;28;20033;-64
2023/09/30 07:27:03;;;;;;;;;;;;;;;15.88;76.72;102006.78;4106048;28;20013;-65
2023/09/30 07:29:05;;;;;;;;;;;;;;;15.90;76.30;102005.59;4105452;28;19926;-64
2023/09/30 07:31:15;;;;;;;;;;;;;;;15.90;76.42;102021.94;4105248;28;20338;-65
2023/09/30 07:33:23;;;;;;;;;;;;;;;15.94;76.59;102012.38;4105897;28;19930;-64
2023/09/30 07:35:26;;;;;;;;;;;;;;;15.95;76.75;102015.94;4105890;28;20102;-66
2023/09/30 07:37:29;;;;;;;;;;;;;;;15.97;76.40;102014.75;4106238;28;20056;-66
2023/09/30 07:39:36;;;;;;;;;;;;;;;15.99;76.08;102023.56;4090147;29;19937;-66
2023/09/30 07:41:38;;;;;;;;;;;;;;;15.98;76.19;102019.16;4105887;28;19923;-66
2023/09/30 07:43:40;;;;;;;;;;;;;;;16.01;75.70;102017.94;4108115;28;19977;-65
2023/09/30 07:45:43;;;;;;;;;;;;;;;16.04;75.39;102017.59;4107707;28;20009;-65
2023/09/30 07:47:51;;;;;;;;;;;;;;;16.04;74.82;102026.59;4106768;28;20020;-64
2023/09/30 07:49:52;;;;;;;;;;;;;;;16.03;75.01;102033.09;4105526;28;20020;-66
2023/09/30 07:51:55;;;;;;;;;;;;;;;16.05;74.90;102030.19;4105746;28;19922;-65
2023/09/30 07:53:59;;;;;;;;;;;;;;;16.06;75.40;102029.13;4106537;28;20351;-66
2023/09/30 07:56:02;;;;;;;;;;;;;;;16.07;75.37;102022.66;4104134;28;19973;-66
2023/09/30 07:58:04;;;;;;;;;;;;;;;16.09;75.45;102031.50;4090147;28;20005;-66
2023/09/30 08:00:09;;;;;;;;;;;;;;;16.11;75.63;102037.63;4105914;28;19989;-66
2023/09/30 08:02:11;;;;;;;;;;;;;;;16.14;75.18;102039.97;4105062;28;20366;-66
2023/09/30 08:04:14;;;;;;;;;;;;;;;16.15;75.03;102038.94;4119582;28;19957;-65
2023/09/30 08:06:16;;;;;;;;;;;;;;;16.17;74.82;102042.34;4102763;28;20017;-64
2023/09/30 08:08:17;;;;;;;;;;;;;;;16.16;74.76;102046.09;4103351;28;20020;-66
2023/09/30 08:10:18;;;;;;;;;;;;;;;16.18;74.43;102052.22;4103625;28;20424;-63
2023/09/30 08:12:22;;;;;;;;;;;;;;;16.20;74.44;102044.69;4102917;28;19961;-67
2023/09/30 08:14:24;;;;;;;;;;;;;;;16.21;74.43;102054.56;4104424;28;20021;-64
2023/09/30 08:16:26;;;;;;;;;;;;;;;16.22;74.41;102055.41;4101834;28;20029;-66
2023/09/30 08:18:29;;;;;;;;;;;;;;;16.25;74.18;102049.59;4103471;28;20471;-67
2023/09/30 08:20:30;;;;;;;;;;;;;;;16.27;74.17;102050.28;4102985;28;20026;-65
2023/09/30 08:22:31;;;;;;;;;;;;;;;16.26;74.07;102054.03;4104122;28;20013;-66
2023/09/30 08:24:33;;;;;;;;;;;;;;;16.29;74.20;102052.81;4105159;28;20025;-65
2023/09/30 08:26:37;;;;;;;;;;;;;;;16.33;74.33;102054.13;4104289;28;20417;-63
2023/09/30 08:28:40;;;;;;;;;;;;;;;16.35;73.98;102052.09;4102763;28;20052;-64
2023/09/30 08:30:42;;;;;;;;;;;;;;;16.39;73.70;102056.13;4119211;28;19929;-65
2023/09/30 08:32:43;;;;;;;;;;;;;;;16.44;73.91;102061.91;4104069;28;20460;-66
2023/09/30 08:34:46;;;;;;;;;;;;;;;16.51;73.84;102056.56;4104187;28;19975;-64
2023/09/30 08:36:48;;;;;;;;;;;;;;;16.56;73.41;102054.94;4103697;28;20008;-64
2023/09/30 08:38:55;;;;;;;;;;;;;;;16.63;73.45;102051.50;4104466;28;20045;-65
2023/09/30 08:41:02;;;;;;;;;;;;;;;16.71;72.82;102056.88;4103267;28;20056;-65
2023/09/30 08:43:09;;;;;;;;;;;;;;;16.77;72.93;102056.16;4103399;28;20048;-66
2023/09/30 08:45:15;;;;;;;;;;;;;;;16.85;72.31;102058.78;4106808;28;20330;-65
2023/09/30 08:47:34;;;;;;;;;;;;;;;16.92;71.78;102056.19;4092751;28;20025;-67
2023/09/30 08:49:41;;;;;;;;;;;;;;;17.00;71.47;102055.25;4119038;28;20021;-65
2023/09/30 08:51:44;;;;;;;;;;;;;;;17.06;71.31;102059.94;4103052;28;19930;-65
2023/09/30 08:53:46;;;;;;;;;;;;;;;17.12;71.05;102053.75;4104862;28;20014;-65
2023/09/30 08:55:48;;;;;;;;;;;;;;;17.20;70.87;102053.63;4102683;28;19927;-64
2023/09/30 08:57:50;;;;;;;;;;;;;;;17.28;71.33;102049.97;4104432;28;20017;-65
2023/09/30 08:59:52;;;;;;;;;;;;;;;17.35;70.76;102053.63;4103119;28;20436;-65
2023/09/30 09:01:54;;;;;;;;;;;;;;;17.42;70.43;102048.25;4103077;28;20049;-65
2023/09/30 09:03:56;;;;;;;;;;;;;;;17.51;69.94;102051.72;4102926;28;20058;-66
2023/09/30 09:05:59;;;;;;;;;;;;;;;17.57;69.96;102049.09;4103636;28;20465;-66
2023/09/30 09:08:02;;;;;;;;;;;;;;;17.64;69.33;102066.38;4103731;28;20068;-64
2023/09/30 09:10:04;;;;;;;;;;;;;;;17.72;69.43;102067.31;4103797;28;19930;-64
2023/09/30 09:12:07;;;;;;;;;;;;;;;17.78;69.04;102061.09;4103289;28;20095;-62
2023/09/30 09:14:09;;;;;;;;;;;;;;;17.86;68.84;102055.50;4103077;28;20020;-64
2023/09/30 09:16:11;;;;;;;;;;;;;;;17.93;68.67;102055.59;4101286;28;19931;-65
2023/09/30 09:18:20;;;;;;;;;;;;;;;18.01;68.14;102052.75;4102514;28;20017;-68
2023/09/30 09:20:21;;;;;;;;;;;;;;;18.08;67.74;102056.38;4102934;28;20065;-66
2023/09/30 09:22:23;;;;;;;;;;;;;;;18.17;67.70;102052.47;4102226;28;20033;-65
2023/09/30 09:24:29;;;;;;;;;;;;;;;18.26;67.38;102053.19;4101328;28;20431;-65
2023/09/30 09:26:34;;;;;;;;;;;;;;;18.36;67.01;102044.66;4098123;28;20416;-66
2023/09/30 09:28:39;;;;;;;;;;;;;;;18.46;66.47;102056.09;4099080;28;19926;-65
2023/09/30 09:30:43;;;;;;;;;;;;;;;18.55;66.23;102051.34;4101984;28;20033;-69
2023/09/30 09:32:54;;;;;;;;;;;;;;;18.64;65.86;102050.16;4102321;28;20017;-67
2023/09/30 09:35:03;;;;;;;;;;;;;;;18.72;65.76;102047.25;4103565;28;20021;-65
2023/09/30 09:37:14;;;;;;;;;;;;;;;18.83;65.09;102056.81;4103589;28;19930;-66
2023/09/30 09:39:16;;;;;;;59.95;30.90;;;;;;;18.92;64.68;102057.53;4102456;28;25052;-67
2023/09/30 09:41:18;;;;;;;;;;;;;;;19.00;64.53;102057.38;4103425;28;20285;-64
2023/09/30 09:43:20;;;;;;;35.70;29.20;;;;;;;19.06;63.90;102062.03;4104372;28;20008;-66
2023/09/30 09:45:22;;;;;;;;;;;;;;;19.14;63.56;102057.44;4104272;28;20314;-65
2023/09/30 09:47:25;;;;;;;;;;;;;;;19.18;63.46;102054.09;4103802;28;20012;-66
2023/09/30 09:49:29;;;;;;;;;;;;;;;19.23;63.35;102057.09;4102120;28;20021;-68
2023/09/30 09:51:32;;;;;;;;;;;;;;;19.27;62.94;102047.41;4103811;28;20013;-67
2023/09/30 09:53:37;;;;;;;60.40;31.42;;;;;;;19.34;63.02;102041.09;4102028;28;24563;-68
2023/09/30 09:55:40;;;;;;;;;;;;;;;19.38;62.91;102050.63;4100930;28;20751;-67
2023/09/30 09:57:44;;;;;;;59.60;30.75;;;;;;;19.41;62.75;102056.53;4102692;28;24587;-64
2023/09/30 09:59:47;;;;;;;;;;;;;;;19.46;62.27;102047.69;4103516;28;21191;-66
2023/09/30 10:01:49;;;;;;;;;;;;;;;19.48;62.29;102048.34;4102432;28;20008;-68
2023/09/30 10:03:53;;;;;;;58.97;31.13;;;;;;;19.50;62.29;102045.38;4102004;28;24593;-66
2023/09/30 10:05:55;;;;;;;;;;;;;;;19.52;62.06;102041.41;4100663;28;20292;-66
2023/09/30 10:08:01;;;;;;;;;;;;;;;19.54;62.06;102043.94;4098271;28;20016;-66
2023/09/30 10:10:02;;;;;;;;;;;;;;;19.55;62.15;102046.47;4102597;28;20369;-68
2023/09/30 10:12:08;;;;;;;56.28;30.08;;;;;;;19.57;62.12;102046.28;4101506;28;25030;-67
2023/09/30 10:14:14;;;;;;;;;;;;;;;19.59;62.12;102039.53;4103900;28;20316;-68
2023/09/30 10:16:30;;;;;;;;;;;;;;;19.62;61.96;102041.00;4101012;28;20026;-64
2023/09/30 10:18:32;;;;;;;;;;;;;;;19.65;62.00;102040.59;4099562;28;20389;-64
2023/09/30 10:20:33;;;;;;;;;;;;;;;19.68;62.15;102034.69;4101108;28;20012;-64
2023/09/30 10:22:35;;;;;;;;;;;;;;;19.71;61.81;102039.78;4103413;28;20033;-66
2023/09/30 10:24:38;;;;;;;57.63;30.37;;;;;;;19.75;61.63;102038.31;4102976;28;24551;-66
2023/09/30 10:26:40;;;;;;;;;;;;;;;19.80;61.32;102043.22;4106769;28;20735;-65
2023/09/30 10:28:44;;;;;;;;;;;;;;;19.84;61.04;102040.91;4106476;28;20022;-65
2023/09/30 10:31:01;;;;;;;;;;;;;;;19.88;60.70;102042.19;4106542;28;20009;-65